sensor_id;sensor_type;location;lat;lon;timestamp;P1;durP1;ratioP1;P2;durP2;ratioP2
30934;SDS011;51033;42.648;23.292;2022-07-23T00:00:56;4.28;;;3.05;;
30934;SDS011;51033;42.648;23.292;2022-07-23T00:03:21;5.57;;;3.45;;
30934;SDS011;51033;42.648;23.292;2022-07-23T00:05:46;5.18;;;3.28;;
30934;SDS011;51033;42.648;23.292;2022-07-23T00:08:12;5.72;;;3.15;;
30934;SDS011;51033;42.648;23.292;2022-07-23T00:10:37;5.15;;;4.05;;
30934;SDS011;51033;42.648;23.292;2022-07-23T00:13:03;6.35;;;3.40;;
30934;SDS011;51033;42.648;23.292;2022-07-23T00:15:28;5.32;;;4.22;;
30934;SDS011;51033;42.648;23.292;2022-07-23T00:17:54;4.60;;;3.05;;
30934;SDS011;51033;42.648;23.292;2022-07-23T00:20:19;6.50;;;3.28;;
30934;SDS011;51033;42.648;23.292;2022-07-23T00:22:47;4.32;;;3.33;;
30934;SDS011;51033;42.648;23.292;2022-07-23T00:25:14;5.05;;;3.53;;
30934;SDS011;51033;42.648;23.292;2022-07-23T00:27:39;7.03;;;2.90;;
30934;SDS011;51033;42.648;23.292;2022-07-23T00:30:05;4.50;;;3.45;;
30934;SDS011;51033;42.648;23.292;2022-07-23T00:32:30;4.57;;;3.65;;
30934;SDS011;51033;42.648;23.292;2022-07-23T00:34:56;5.28;;;4.10;;
30934;SDS011;51033;42.648;23.292;2022-07-23T00:37:21;6.72;;;4.35;;
30934;SDS011;51033;42.648;23.292;2022-07-23T00:39:47;6.63;;;3.78;;
30934;SDS011;51033;42.648;23.292;2022-07-23T00:42:12;5.13;;;3.58;;
30934;SDS011;51033;42.648;23.292;2022-07-23T00:44:37;6.50;;;3.30;;
30934;SDS011;51033;42.648;23.292;2022-07-23T00:47:03;5.60;;;3.17;;
30934;SDS011;51033;42.648;23.292;2022-07-23T00:49:30;4.00;;;3.13;;
30934;SDS011;51033;42.648;23.292;2022-07-23T00:51:56;4.22;;;3.83;;
30934;SDS011;51033;42.648;23.292;2022-07-23T00:54:24;5.45;;;4.20;;
30934;SDS011;51033;42.648;23.292;2022-07-23T00:56:50;6.40;;;3.78;;
30934;SDS011;51033;42.648;23.292;2022-07-23T00:59:16;6.88;;;3.53;;
30934;SDS011;51033;42.648;23.292;2022-07-23T01:01:41;6.78;;;3.60;;
30934;SDS011;51033;42.648;23.292;2022-07-23T01:04:08;5.72;;;3.83;;
30934;SDS011;51033;42.648;23.292;2022-07-23T01:06:35;4.43;;;3.67;;
30934;SDS011;51033;42.648;23.292;2022-07-23T01:09:02;5.95;;;4.10;;
30934;SDS011;51033;42.648;23.292;2022-07-23T01:11:28;5.13;;;3.88;;
30934;SDS011;51033;42.648;23.292;2022-07-23T01:13:55;7.10;;;3.75;;
30934;SDS011;51033;42.648;23.292;2022-07-23T01:16:20;6.80;;;3.90;;
30934;SDS011;51033;42.648;23.292;2022-07-23T01:18:46;8.30;;;3.92;;
30934;SDS011;51033;42.648;23.292;2022-07-23T01:21:11;5.50;;;4.05;;
30934;SDS011;51033;42.648;23.292;2022-07-23T01:23:38;6.68;;;4.70;;
30934;SDS011;51033;42.648;23.292;2022-07-23T01:26:03;6.05;;;3.97;;
30934;SDS011;51033;42.648;23.292;2022-07-23T01:28:29;5.55;;;4.13;;
30934;SDS011;51033;42.648;23.292;2022-07-23T01:30:55;5.07;;;3.63;;
30934;SDS011;51033;42.648;23.292;2022-07-23T01:33:20;7.40;;;4.55;;
30934;SDS011;51033;42.648;23.292;2022-07-23T01:35:45;5.40;;;4.38;;
30934;SDS011;51033;42.648;23.292;2022-07-23T01:38:11;6.03;;;4.43;;
30934;SDS011;51033;42.648;23.292;2022-07-23T01:40:36;5.65;;;4.18;;
30934;SDS011;51033;42.648;23.292;2022-07-23T01:43:02;6.20;;;4.35;;
30934;SDS011;51033;42.648;23.292;2022-07-23T01:45:27;4.53;;;3.97;;
30934;SDS011;51033;42.648;23.292;2022-07-23T01:47:52;5.28;;;3.63;;
30934;SDS011;51033;42.648;23.292;2022-07-23T01:50:18;5.35;;;4.15;;
30934;SDS011;51033;42.648;23.292;2022-07-23T01:52:43;8.93;;;4.32;;
30934;SDS011;51033;42.648;23.292;2022-07-23T01:55:09;5.75;;;3.55;;
30934;SDS011;51033;42.648;23.292;2022-07-23T01:57:34;7.65;;;3.67;;
30934;SDS011;51033;42.648;23.292;2022-07-23T01:59:59;4.38;;;3.72;;
30934;SDS011;51033;42.648;23.292;2022-07-23T02:02:25;7.60;;;3.65;;
30934;SDS011;51033;42.648;23.292;2022-07-23T02:04:51;6.28;;;4.10;;
30934;SDS011;51033;42.648;23.292;2022-07-23T02:07:16;5.63;;;4.20;;
30934;SDS011;51033;42.648;23.292;2022-07-23T02:09:42;7.85;;;3.63;;
30934;SDS011;51033;42.648;23.292;2022-07-23T02:12:07;4.20;;;3.25;;
30934;SDS011;51033;42.648;23.292;2022-07-23T02:14:33;5.25;;;3.28;;
30934;SDS011;51033;42.648;23.292;2022-07-23T02:16:58;6.35;;;3.40;;
30934;SDS011;51033;42.648;23.292;2022-07-23T02:19:24;6.60;;;4.15;;
30934;SDS011;51033;42.648;23.292;2022-07-23T02:21:49;7.30;;;3.92;;
30934;SDS011;51033;42.648;23.292;2022-07-23T02:24:15;5.47;;;4.18;;
30934;SDS011;51033;42.648;23.292;2022-07-23T02:26:41;7.00;;;3.80;;
30934;SDS011;51033;42.648;23.292;2022-07-23T02:29:06;5.38;;;3.47;;
30934;SDS011;51033;42.648;23.292;2022-07-23T02:31:32;5.30;;;3.50;;
30934;SDS011;51033;42.648;23.292;2022-07-23T02:33:58;4.25;;;3.28;;
30934;SDS011;51033;42.648;23.292;2022-07-23T02:36:24;4.65;;;3.72;;
30934;SDS011;51033;42.648;23.292;2022-07-23T02:38:50;7.88;;;4.10;;
30934;SDS011;51033;42.648;23.292;2022-07-23T02:41:15;6.28;;;3.60;;
30934;SDS011;51033;42.648;23.292;2022-07-23T02:43:40;7.05;;;4.03;;
30934;SDS011;51033;42.648;23.292;2022-07-23T02:46:06;10.25;;;3.90;;
30934;SDS011;51033;42.648;23.292;2022-07-23T02:48:32;6.60;;;4.20;;
30934;SDS011;51033;42.648;23.292;2022-07-23T02:50:58;7.57;;;4.15;;
30934;SDS011;51033;42.648;23.292;2022-07-23T02:53:23;7.63;;;4.32;;
30934;SDS011;51033;42.648;23.292;2022-07-23T02:55:49;5.60;;;4.05;;
30934;SDS011;51033;42.648;23.292;2022-07-23T02:58:14;7.15;;;5.22;;
30934;SDS011;51033;42.648;23.292;2022-07-23T03:00:39;5.30;;;3.58;;
30934;SDS011;51033;42.648;23.292;2022-07-23T03:03:05;7.05;;;3.72;;
30934;SDS011;51033;42.648;23.292;2022-07-23T03:05:31;5.28;;;4.15;;
30934;SDS011;51033;42.648;23.292;2022-07-23T03:07:57;7.18;;;4.65;;
30934;SDS011;51033;42.648;23.292;2022-07-23T03:10:22;4.68;;;4.25;;
30934;SDS011;51033;42.648;23.292;2022-07-23T03:12:47;6.22;;;4.03;;
30934;SDS011;51033;42.648;23.292;2022-07-23T03:15:13;5.53;;;4.10;;
30934;SDS011;51033;42.648;23.292;2022-07-23T03:17:38;8.95;;;3.90;;
30934;SDS011;51033;42.648;23.292;2022-07-23T03:20:04;4.65;;;3.72;;
30934;SDS011;51033;42.648;23.292;2022-07-23T03:22:29;6.22;;;4.45;;
30934;SDS011;51033;42.648;23.292;2022-07-23T03:24:55;6.40;;;4.55;;
30934;SDS011;51033;42.648;23.292;2022-07-23T03:27:24;5.40;;;4.38;;
30934;SDS011;51033;42.648;23.292;2022-07-23T03:29:52;5.97;;;3.78;;
30934;SDS011;51033;42.648;23.292;2022-07-23T03:32:18;7.20;;;3.88;;
30934;SDS011;51033;42.648;23.292;2022-07-23T03:34:44;6.70;;;4.55;;
30934;SDS011;51033;42.648;23.292;2022-07-23T03:37:09;7.75;;;3.97;;
30934;SDS011;51033;42.648;23.292;2022-07-23T03:39:35;6.40;;;4.55;;
30934;SDS011;51033;42.648;23.292;2022-07-23T03:42:01;6.75;;;4.50;;
30934;SDS011;51033;42.648;23.292;2022-07-23T03:44:26;10.50;;;5.10;;
30934;SDS011;51033;42.648;23.292;2022-07-23T03:46:52;6.80;;;4.47;;
30934;SDS011;51033;42.648;23.292;2022-07-23T03:49:17;6.32;;;4.43;;
30934;SDS011;51033;42.648;23.292;2022-07-23T03:51:43;7.22;;;4.93;;
30934;SDS011;51033;42.648;23.292;2022-07-23T03:54:08;5.93;;;4.68;;
30934;SDS011;51033;42.648;23.292;2022-07-23T03:56:34;7.82;;;4.57;;
30934;SDS011;51033;42.648;23.292;2022-07-23T03:59:00;8.82;;;5.65;;
30934;SDS011;51033;42.648;23.292;2022-07-23T04:01:25;5.03;;;4.25;;
30934;SDS011;51033;42.648;23.292;2022-07-23T04:03:51;7.80;;;4.68;;
30934;SDS011;51033;42.648;23.292;2022-07-23T04:06:17;7.28;;;5.00;;
30934;SDS011;51033;42.648;23.292;2022-07-23T04:08:43;5.88;;;4.80;;
30934;SDS011;51033;42.648;23.292;2022-07-23T04:11:08;7.18;;;4.97;;
30934;SDS011;51033;42.648;23.292;2022-07-23T04:13:33;7.57;;;5.57;;
30934;SDS011;51033;42.648;23.292;2022-07-23T04:15:59;6.53;;;5.15;;
30934;SDS011;51033;42.648;23.292;2022-07-23T04:18:24;11.27;;;6.10;;
30934;SDS011;51033;42.648;23.292;2022-07-23T04:20:52;8.77;;;6.00;;
30934;SDS011;51033;42.648;23.292;2022-07-23T04:23:18;9.60;;;6.05;;
30934;SDS011;51033;42.648;23.292;2022-07-23T04:25:43;10.45;;;6.22;;
30934;SDS011;51033;42.648;23.292;2022-07-23T04:28:09;11.18;;;6.38;;
30934;SDS011;51033;42.648;23.292;2022-07-23T04:30:34;9.55;;;6.22;;
30934;SDS011;51033;42.648;23.292;2022-07-23T04:33:00;8.07;;;6.28;;
30934;SDS011;51033;42.648;23.292;2022-07-23T04:35:25;9.00;;;6.63;;
30934;SDS011;51033;42.648;23.292;2022-07-23T04:37:51;12.18;;;7.25;;
30934;SDS011;51033;42.648;23.292;2022-07-23T04:40:16;11.32;;;5.90;;
30934;SDS011;51033;42.648;23.292;2022-07-23T04:42:42;7.88;;;5.35;;
30934;SDS011;51033;42.648;23.292;2022-07-23T04:45:07;14.55;;;6.90;;
30934;SDS011;51033;42.648;23.292;2022-07-23T04:47:33;8.38;;;5.75;;
30934;SDS011;51033;42.648;23.292;2022-07-23T04:49:58;7.15;;;5.60;;
30934;SDS011;51033;42.648;23.292;2022-07-23T04:52:24;12.57;;;6.20;;
30934;SDS011;51033;42.648;23.292;2022-07-23T04:54:49;8.50;;;6.63;;
30934;SDS011;51033;42.648;23.292;2022-07-23T04:57:15;9.60;;;6.55;;
30934;SDS011;51033;42.648;23.292;2022-07-23T04:59:41;9.20;;;6.30;;
30934;SDS011;51033;42.648;23.292;2022-07-23T05:02:06;9.95;;;6.78;;
30934;SDS011;51033;42.648;23.292;2022-07-23T05:04:31;9.02;;;6.22;;
30934;SDS011;51033;42.648;23.292;2022-07-23T05:06:57;11.60;;;6.70;;
30934;SDS011;51033;42.648;23.292;2022-07-23T05:09:23;11.27;;;6.60;;
30934;SDS011;51033;42.648;23.292;2022-07-23T05:11:49;11.60;;;6.38;;
30934;SDS011;51033;42.648;23.292;2022-07-23T05:14:14;9.70;;;6.43;;
30934;SDS011;51033;42.648;23.292;2022-07-23T05:16:40;8.82;;;7.00;;
30934;SDS011;51033;42.648;23.292;2022-07-23T05:19:05;10.05;;;6.32;;
30934;SDS011;51033;42.648;23.292;2022-07-23T05:21:31;10.73;;;5.85;;
30934;SDS011;51033;42.648;23.292;2022-07-23T05:23:57;6.95;;;5.35;;
30934;SDS011;51033;42.648;23.292;2022-07-23T05:26:22;7.30;;;5.78;;
30934;SDS011;51033;42.648;23.292;2022-07-23T05:28:48;7.53;;;5.05;;
30934;SDS011;51033;42.648;23.292;2022-07-23T05:31:13;6.82;;;5.38;;
30934;SDS011;51033;42.648;23.292;2022-07-23T05:33:39;14.35;;;6.35;;
30934;SDS011;51033;42.648;23.292;2022-07-23T05:36:04;6.90;;;5.43;;
30934;SDS011;51033;42.648;23.292;2022-07-23T05:38:31;6.88;;;4.55;;
30934;SDS011;51033;42.648;23.292;2022-07-23T05:40:57;9.25;;;5.97;;
30934;SDS011;51033;42.648;23.292;2022-07-23T05:43:22;12.27;;;7.07;;
30934;SDS011;51033;42.648;23.292;2022-07-23T05:45:48;8.65;;;5.38;;
30934;SDS011;51033;42.648;23.292;2022-07-23T05:48:13;8.43;;;5.40;;
30934;SDS011;51033;42.648;23.292;2022-07-23T05:50:39;6.68;;;4.97;;
30934;SDS011;51033;42.648;23.292;2022-07-23T05:53:04;15.70;;;6.03;;
30934;SDS011;51033;42.648;23.292;2022-07-23T05:55:29;9.43;;;5.72;;
30934;SDS011;51033;42.648;23.292;2022-07-23T05:57:56;6.97;;;5.72;;
30934;SDS011;51033;42.648;23.292;2022-07-23T06:00:22;12.35;;;7.13;;
30934;SDS011;51033;42.648;23.292;2022-07-23T06:02:48;9.98;;;6.25;;
30934;SDS011;51033;42.648;23.292;2022-07-23T06:05:14;9.13;;;7.00;;
30934;SDS011;51033;42.648;23.292;2022-07-23T06:07:40;7.30;;;5.63;;
30934;SDS011;51033;42.648;23.292;2022-07-23T06:10:05;13.65;;;6.47;;
30934;SDS011;51033;42.648;23.292;2022-07-23T06:12:31;11.10;;;6.25;;
30934;SDS011;51033;42.648;23.292;2022-07-23T06:14:56;7.80;;;5.47;;
30934;SDS011;51033;42.648;23.292;2022-07-23T06:17:22;7.05;;;5.38;;
30934;SDS011;51033;42.648;23.292;2022-07-23T06:19:47;11.77;;;6.20;;
30934;SDS011;51033;42.648;23.292;2022-07-23T06:22:13;9.02;;;6.18;;
30934;SDS011;51033;42.648;23.292;2022-07-23T06:24:38;9.18;;;5.60;;
30934;SDS011;51033;42.648;23.292;2022-07-23T06:27:04;6.15;;;5.13;;
30934;SDS011;51033;42.648;23.292;2022-07-23T06:29:29;10.60;;;5.90;;
30934;SDS011;51033;42.648;23.292;2022-07-23T06:31:55;10.10;;;6.13;;
30934;SDS011;51033;42.648;23.292;2022-07-23T06:34:20;8.45;;;6.32;;
30934;SDS011;51033;42.648;23.292;2022-07-23T06:36:45;8.75;;;5.78;;
30934;SDS011;51033;42.648;23.292;2022-07-23T06:39:11;8.38;;;5.72;;
30934;SDS011;51033;42.648;23.292;2022-07-23T06:41:36;7.13;;;5.95;;
30934;SDS011;51033;42.648;23.292;2022-07-23T06:44:02;11.80;;;6.53;;
30934;SDS011;51033;42.648;23.292;2022-07-23T06:46:27;11.07;;;6.30;;
30934;SDS011;51033;42.648;23.292;2022-07-23T06:48:53;10.88;;;5.55;;
30934;SDS011;51033;42.648;23.292;2022-07-23T06:51:18;9.40;;;4.55;;
30934;SDS011;51033;42.648;23.292;2022-07-23T06:53:44;6.95;;;5.07;;
30934;SDS011;51033;42.648;23.292;2022-07-23T06:56:10;8.80;;;5.68;;
30934;SDS011;51033;42.648;23.292;2022-07-23T06:58:35;7.03;;;5.18;;
30934;SDS011;51033;42.648;23.292;2022-07-23T07:01:00;5.38;;;4.53;;
30934;SDS011;51033;42.648;23.292;2022-07-23T07:03:26;6.78;;;5.40;;
30934;SDS011;51033;42.648;23.292;2022-07-23T07:05:51;6.55;;;4.90;;
30934;SDS011;51033;42.648;23.292;2022-07-23T07:08:18;8.15;;;5.43;;
30934;SDS011;51033;42.648;23.292;2022-07-23T07:10:43;8.05;;;5.70;;
30934;SDS011;51033;42.648;23.292;2022-07-23T07:13:09;7.32;;;5.70;;
30934;SDS011;51033;42.648;23.292;2022-07-23T07:15:34;6.57;;;5.13;;
30934;SDS011;51033;42.648;23.292;2022-07-23T07:18:00;9.15;;;5.95;;
30934;SDS011;51033;42.648;23.292;2022-07-23T07:20:25;6.85;;;5.50;;
30934;SDS011;51033;42.648;23.292;2022-07-23T07:22:51;9.60;;;5.80;;
30934;SDS011;51033;42.648;23.292;2022-07-23T07:25:16;8.25;;;5.68;;
30934;SDS011;51033;42.648;23.292;2022-07-23T07:27:41;9.02;;;5.68;;
30934;SDS011;51033;42.648;23.292;2022-07-23T07:30:09;6.88;;;5.45;;
30934;SDS011;51033;42.648;23.292;2022-07-23T07:32:35;10.27;;;6.20;;
30934;SDS011;51033;42.648;23.292;2022-07-23T07:35:02;7.05;;;5.43;;
30934;SDS011;51033;42.648;23.292;2022-07-23T07:37:30;11.35;;;6.55;;
30934;SDS011;51033;42.648;23.292;2022-07-23T07:39:56;10.85;;;7.30;;
30934;SDS011;51033;42.648;23.292;2022-07-23T07:42:21;6.22;;;5.57;;
30934;SDS011;51033;42.648;23.292;2022-07-23T07:44:47;6.97;;;5.25;;
30934;SDS011;51033;42.648;23.292;2022-07-23T07:47:12;8.35;;;5.30;;
30934;SDS011;51033;42.648;23.292;2022-07-23T07:49:40;6.18;;;5.53;;
30934;SDS011;51033;42.648;23.292;2022-07-23T07:52:06;10.55;;;6.10;;
30934;SDS011;51033;42.648;23.292;2022-07-23T07:54:31;8.05;;;5.78;;
30934;SDS011;51033;42.648;23.292;2022-07-23T07:56:57;6.53;;;5.28;;
30934;SDS011;51033;42.648;23.292;2022-07-23T07:59:22;9.60;;;6.50;;
30934;SDS011;51033;42.648;23.292;2022-07-23T08:01:48;7.68;;;6.63;;
30934;SDS011;51033;42.648;23.292;2022-07-23T08:04:13;7.32;;;5.85;;
30934;SDS011;51033;42.648;23.292;2022-07-23T08:06:39;7.97;;;5.82;;
30934;SDS011;51033;42.648;23.292;2022-07-23T08:09:04;8.98;;;6.32;;
30934;SDS011;51033;42.648;23.292;2022-07-23T08:11:29;8.55;;;5.75;;
30934;SDS011;51033;42.648;23.292;2022-07-23T08:13:55;27.80;;;6.47;;
30934;SDS011;51033;42.648;23.292;2022-07-23T08:16:21;6.57;;;5.70;;
30934;SDS011;51033;42.648;23.292;2022-07-23T08:18:46;10.32;;;6.22;;
30934;SDS011;51033;42.648;23.292;2022-07-23T08:21:11;10.50;;;6.15;;
30934;SDS011;51033;42.648;23.292;2022-07-23T08:23:37;8.70;;;6.03;;
30934;SDS011;51033;42.648;23.292;2022-07-23T08:26:02;8.73;;;6.10;;
30934;SDS011;51033;42.648;23.292;2022-07-23T08:28:28;6.35;;;5.35;;
30934;SDS011;51033;42.648;23.292;2022-07-23T08:30:53;11.60;;;6.18;;
30934;SDS011;51033;42.648;23.292;2022-07-23T08:33:18;8.00;;;6.13;;
30934;SDS011;51033;42.648;23.292;2022-07-23T08:35:45;9.23;;;5.85;;
30934;SDS011;51033;42.648;23.292;2022-07-23T08:38:13;9.20;;;6.30;;
30934;SDS011;51033;42.648;23.292;2022-07-23T08:40:50;9.77;;;6.15;;
30934;SDS011;51033;42.648;23.292;2022-07-23T08:43:18;12.30;;;6.32;;
30934;SDS011;51033;42.648;23.292;2022-07-23T08:45:49;11.82;;;7.00;;
30934;SDS011;51033;42.648;23.292;2022-07-23T08:50:44;12.82;;;6.75;;
30934;SDS011;51033;42.648;23.292;2022-07-23T08:53:19;10.98;;;6.65;;
30934;SDS011;51033;42.648;23.292;2022-07-23T08:55:47;8.50;;;5.80;;
30934;SDS011;51033;42.648;23.292;2022-07-23T08:58:14;7.47;;;6.50;;
30934;SDS011;51033;42.648;23.292;2022-07-23T09:00:40;8.00;;;6.13;;
30934;SDS011;51033;42.648;23.292;2022-07-23T09:03:06;10.30;;;7.20;;
30934;SDS011;51033;42.648;23.292;2022-07-23T09:05:31;6.85;;;6.15;;
30934;SDS011;51033;42.648;23.292;2022-07-23T09:08:07;12.68;;;5.70;;
30934;SDS011;51033;42.648;23.292;2022-07-23T09:13:22;9.88;;;6.82;;
30934;SDS011;51033;42.648;23.292;2022-07-23T09:15:54;8.55;;;6.07;;
30934;SDS011;51033;42.648;23.292;2022-07-23T09:18:32;10.50;;;6.22;;
30934;SDS011;51033;42.648;23.292;2022-07-23T09:21:07;9.85;;;5.40;;
30934;SDS011;51033;42.648;23.292;2022-07-23T09:23:36;7.07;;;5.60;;
30934;SDS011;51033;42.648;23.292;2022-07-23T09:26:16;7.70;;;6.00;;
30934;SDS011;51033;42.648;23.292;2022-07-23T09:31:23;8.40;;;6.85;;
30934;SDS011;51033;42.648;23.292;2022-07-23T09:33:49;8.40;;;6.03;;
30934;SDS011;51033;42.648;23.292;2022-07-23T09:36:15;7.50;;;5.72;;
30934;SDS011;51033;42.648;23.292;2022-07-23T09:38:51;10.20;;;5.95;;
30934;SDS011;51033;42.648;23.292;2022-07-23T09:41:17;7.07;;;5.80;;
30934;SDS011;51033;42.648;23.292;2022-07-23T09:43:42;11.50;;;6.80;;
30934;SDS011;51033;42.648;23.292;2022-07-23T09:46:18;7.82;;;5.47;;
30934;SDS011;51033;42.648;23.292;2022-07-23T09:48:48;8.80;;;6.00;;
30934;SDS011;51033;42.648;23.292;2022-07-23T09:51:14;6.32;;;5.07;;
30934;SDS011;51033;42.648;23.292;2022-07-23T09:54:01;5.57;;;4.55;;
30934;SDS011;51033;42.648;23.292;2022-07-23T09:56:27;5.97;;;4.32;;
30934;SDS011;51033;42.648;23.292;2022-07-23T09:58:53;6.30;;;3.20;;
30934;SDS011;51033;42.648;23.292;2022-07-23T10:01:31;7.15;;;3.33;;
30934;SDS011;51033;42.648;23.292;2022-07-23T10:03:57;8.18;;;4.85;;
30934;SDS011;51033;42.648;23.292;2022-07-23T10:06:23;7.63;;;4.97;;
30934;SDS011;51033;42.648;23.292;2022-07-23T10:08:49;6.97;;;4.85;;
30934;SDS011;51033;42.648;23.292;2022-07-23T10:11:16;12.70;;;5.07;;
30934;SDS011;51033;42.648;23.292;2022-07-23T10:13:42;6.07;;;4.80;;
30934;SDS011;51033;42.648;23.292;2022-07-23T10:16:28;7.95;;;4.75;;
30934;SDS011;51033;42.648;23.292;2022-07-23T10:18:54;8.38;;;4.30;;
30934;SDS011;51033;42.648;23.292;2022-07-23T10:21:21;6.57;;;4.18;;
30934;SDS011;51033;42.648;23.292;2022-07-23T10:26:40;8.40;;;4.68;;
30934;SDS011;51033;42.648;23.292;2022-07-23T10:32:14;13.18;;;4.55;;
30934;SDS011;51033;42.648;23.292;2022-07-23T10:34:44;6.97;;;5.05;;
30934;SDS011;51033;42.648;23.292;2022-07-23T10:37:21;9.50;;;4.55;;
30934;SDS011;51033;42.648;23.292;2022-07-23T10:42:38;5.63;;;4.88;;
30934;SDS011;51033;42.648;23.292;2022-07-23T10:45:49;5.93;;;4.07;;
30934;SDS011;51033;42.648;23.292;2022-07-23T10:47:49;8.90;;;4.78;;
30934;SDS011;51033;42.648;23.292;2022-07-23T10:55:46;8.02;;;3.65;;
30934;SDS011;51033;42.648;23.292;2022-07-23T10:58:17;8.90;;;3.85;;
30934;SDS011;51033;42.648;23.292;2022-07-23T11:00:44;5.80;;;4.65;;
30934;SDS011;51033;42.648;23.292;2022-07-23T11:03:31;7.47;;;4.10;;
30934;SDS011;51033;42.648;23.292;2022-07-23T11:06:01;10.73;;;3.90;;
30934;SDS011;51033;42.648;23.292;2022-07-23T11:08:27;9.38;;;4.75;;
30934;SDS011;51033;42.648;23.292;2022-07-23T11:10:54;7.78;;;4.55;;
30934;SDS011;51033;42.648;23.292;2022-07-23T11:13:41;7.60;;;4.45;;
30934;SDS011;51033;42.648;23.292;2022-07-23T11:16:18;4.38;;;2.97;;
30934;SDS011;51033;42.648;23.292;2022-07-23T11:34:26;10.17;;;3.33;;
30934;SDS011;51033;42.648;23.292;2022-07-23T11:36:54;5.15;;;3.03;;
30934;SDS011;51033;42.648;23.292;2022-07-23T11:39:20;13.32;;;3.40;;
30934;SDS011;51033;42.648;23.292;2022-07-23T11:41:49;9.85;;;3.97;;
30934;SDS011;51033;42.648;23.292;2022-07-23T11:46:54;8.32;;;3.20;;
30934;SDS011;51033;42.648;23.292;2022-07-23T11:49:24;4.63;;;3.42;;
30934;SDS011;51033;42.648;23.292;2022-07-23T11:54:48;5.15;;;3.45;;
30934;SDS011;51033;42.648;23.292;2022-07-23T11:57:21;5.72;;;3.35;;
30934;SDS011;51033;42.648;23.292;2022-07-23T11:59:52;8.48;;;3.60;;
30934;SDS011;51033;42.648;23.292;2022-07-23T12:02:20;8.32;;;3.88;;
30934;SDS011;51033;42.648;23.292;2022-07-23T12:04:47;5.18;;;3.55;;
30934;SDS011;51033;42.648;23.292;2022-07-23T12:07:31;18.77;;;3.75;;
30934;SDS011;51033;42.648;23.292;2022-07-23T12:10:04;8.75;;;4.10;;
30934;SDS011;51033;42.648;23.292;2022-07-23T12:15:35;10.13;;;2.85;;
30934;SDS011;51033;42.648;23.292;2022-07-23T12:18:04;13.07;;;4.00;;
30934;SDS011;51033;42.648;23.292;2022-07-23T12:20:31;13.30;;;3.88;;
30934;SDS011;51033;42.648;23.292;2022-07-23T12:23:00;7.93;;;2.35;;
30934;SDS011;51033;42.648;23.292;2022-07-23T12:25:31;5.35;;;3.28;;
30934;SDS011;51033;42.648;23.292;2022-07-23T12:28:11;7.30;;;2.70;;
30934;SDS011;51033;42.648;23.292;2022-07-23T12:33:04;14.50;;;3.33;;
30934;SDS011;51033;42.648;23.292;2022-07-23T12:35:32;10.85;;;3.65;;
30934;SDS011;51033;42.648;23.292;2022-07-23T12:38:06;11.93;;;2.60;;
30934;SDS011;51033;42.648;23.292;2022-07-23T12:46:08;10.93;;;2.83;;
30934;SDS011;51033;42.648;23.292;2022-07-23T12:51:17;5.70;;;3.05;;
30934;SDS011;51033;42.648;23.292;2022-07-23T12:53:48;12.05;;;3.35;;
30934;SDS011;51033;42.648;23.292;2022-07-23T12:56:16;7.70;;;3.00;;
30934;SDS011;51033;42.648;23.292;2022-07-23T12:59:05;5.07;;;2.65;;
30934;SDS011;51033;42.648;23.292;2022-07-23T13:01:38;7.72;;;2.67;;
30934;SDS011;51033;42.648;23.292;2022-07-23T13:04:24;6.35;;;3.40;;
30934;SDS011;51033;42.648;23.292;2022-07-23T13:06:51;8.43;;;2.90;;
30934;SDS011;51033;42.648;23.292;2022-07-23T13:09:20;6.82;;;2.35;;
30934;SDS011;51033;42.648;23.292;2022-07-23T13:11:50;7.28;;;2.42;;
30934;SDS011;51033;42.648;23.292;2022-07-23T13:14:17;4.85;;;1.90;;
30934;SDS011;51033;42.648;23.292;2022-07-23T13:16:44;6.65;;;3.00;;
30934;SDS011;51033;42.648;23.292;2022-07-23T13:19:10;6.18;;;2.60;;
30934;SDS011;51033;42.648;23.292;2022-07-23T13:21:36;4.32;;;2.25;;
30934;SDS011;51033;42.648;23.292;2022-07-23T13:24:02;5.45;;;3.08;;
30934;SDS011;51033;42.648;23.292;2022-07-23T13:26:28;9.20;;;2.45;;
30934;SDS011;51033;42.648;23.292;2022-07-23T13:28:53;5.13;;;2.47;;
30934;SDS011;51033;42.648;23.292;2022-07-23T13:31:19;7.35;;;3.45;;
30934;SDS011;51033;42.648;23.292;2022-07-23T13:33:44;6.72;;;2.25;;
30934;SDS011;51033;42.648;23.292;2022-07-23T13:36:10;6.93;;;3.05;;
30934;SDS011;51033;42.648;23.292;2022-07-23T13:38:36;8.30;;;3.40;;
30934;SDS011;51033;42.648;23.292;2022-07-23T13:41:02;8.52;;;3.33;;
30934;SDS011;51033;42.648;23.292;2022-07-23T13:43:28;6.60;;;3.30;;
30934;SDS011;51033;42.648;23.292;2022-07-23T13:45:54;4.75;;;2.90;;
30934;SDS011;51033;42.648;23.292;2022-07-23T13:48:20;4.60;;;3.13;;
30934;SDS011;51033;42.648;23.292;2022-07-23T13:50:47;4.63;;;3.10;;
30934;SDS011;51033;42.648;23.292;2022-07-23T13:53:16;11.15;;;4.22;;
30934;SDS011;51033;42.648;23.292;2022-07-23T13:55:44;5.35;;;2.67;;
30934;SDS011;51033;42.648;23.292;2022-07-23T13:58:11;8.68;;;3.45;;
30934;SDS011;51033;42.648;23.292;2022-07-23T14:00:38;7.95;;;3.00;;
30934;SDS011;51033;42.648;23.292;2022-07-23T14:03:05;5.63;;;2.97;;
30934;SDS011;51033;42.648;23.292;2022-07-23T14:05:31;6.85;;;3.30;;
30934;SDS011;51033;42.648;23.292;2022-07-23T14:07:57;5.22;;;3.22;;
30934;SDS011;51033;42.648;23.292;2022-07-23T14:10:23;8.27;;;3.03;;
30934;SDS011;51033;42.648;23.292;2022-07-23T14:12:49;6.88;;;3.42;;
30934;SDS011;51033;42.648;23.292;2022-07-23T14:15:17;9.90;;;3.42;;
30934;SDS011;51033;42.648;23.292;2022-07-23T14:17:43;6.68;;;3.33;;
30934;SDS011;51033;42.648;23.292;2022-07-23T14:20:11;7.55;;;3.50;;
30934;SDS011;51033;42.648;23.292;2022-07-23T14:22:38;5.13;;;2.50;;
30934;SDS011;51033;42.648;23.292;2022-07-23T14:25:04;4.45;;;2.55;;
30934;SDS011;51033;42.648;23.292;2022-07-23T14:27:31;10.07;;;3.30;;
30934;SDS011;51033;42.648;23.292;2022-07-23T14:29:57;5.68;;;2.78;;
30934;SDS011;51033;42.648;23.292;2022-07-23T14:32:22;5.18;;;3.13;;
30934;SDS011;51033;42.648;23.292;2022-07-23T14:34:48;4.43;;;2.50;;
30934;SDS011;51033;42.648;23.292;2022-07-23T14:37:14;7.05;;;3.00;;
30934;SDS011;51033;42.648;23.292;2022-07-23T14:39:40;8.30;;;3.20;;
30934;SDS011;51033;42.648;23.292;2022-07-23T14:42:06;7.40;;;2.65;;
30934;SDS011;51033;42.648;23.292;2022-07-23T14:44:33;8.88;;;3.38;;
30934;SDS011;51033;42.648;23.292;2022-07-23T14:46:59;5.25;;;2.75;;
30934;SDS011;51033;42.648;23.292;2022-07-23T14:49:25;6.57;;;2.65;;
30934;SDS011;51033;42.648;23.292;2022-07-23T14:51:51;4.22;;;3.53;;
30934;SDS011;51033;42.648;23.292;2022-07-23T14:54:16;5.00;;;3.45;;
30934;SDS011;51033;42.648;23.292;2022-07-23T14:56:42;4.72;;;3.35;;
30934;SDS011;51033;42.648;23.292;2022-07-23T14:59:07;4.28;;;2.70;;
30934;SDS011;51033;42.648;23.292;2022-07-23T15:01:33;8.23;;;2.42;;
30934;SDS011;51033;42.648;23.292;2022-07-23T15:03:59;4.70;;;3.35;;
30934;SDS011;51033;42.648;23.292;2022-07-23T15:06:24;6.75;;;2.53;;
30934;SDS011;51033;42.648;23.292;2022-07-23T15:08:50;4.57;;;2.75;;
30934;SDS011;51033;42.648;23.292;2022-07-23T15:11:16;5.75;;;3.35;;
30934;SDS011;51033;42.648;23.292;2022-07-23T15:13:41;7.03;;;2.88;;
30934;SDS011;51033;42.648;23.292;2022-07-23T15:16:07;4.63;;;2.58;;
30934;SDS011;51033;42.648;23.292;2022-07-23T15:18:33;7.18;;;3.05;;
30934;SDS011;51033;42.648;23.292;2022-07-23T15:20:59;8.35;;;3.40;;
30934;SDS011;51033;42.648;23.292;2022-07-23T15:23:24;4.45;;;3.20;;
30934;SDS011;51033;42.648;23.292;2022-07-23T15:25:49;6.03;;;3.45;;
30934;SDS011;51033;42.648;23.292;2022-07-23T15:28:15;8.20;;;3.03;;